createdAt,value
2019-05-01T00:01:11.203Z,99.90
2019-05-01T00:04:01.004Z,99.90
2019-05-01T00:06:34.711Z,99.90
2019-05-01T00:09:01.948Z,99.90
2019-05-01T00:11:29.202Z,99.90
2019-05-01T00:13:56.571Z,99.90
2019-05-01T00:16:23.841Z,99.90
2019-05-01T00:18:51.103Z,99.90
2019-05-01T00:21:18.352Z,99.90
2019-05-01T00:23:45.590Z,99.90
2019-05-01T00:26:12.823Z,99.90
2019-05-01T00:28:40.071Z,99.90
2019-05-01T00:31:07.379Z,99.90
2019-05-01T00:33:34.581Z,99.90
2019-05-01T00:36:01.850Z,99.90
2019-05-01T00:38:29.100Z,99.90
2019-05-01T00:40:56.337Z,99.90
2019-05-01T00:43:23.585Z,99.90
2019-05-01T00:45:50.918Z,99.90
2019-05-01T00:48:18.149Z,99.90
2019-05-01T00:50:45.418Z,99.90
2019-05-01T00:53:12.647Z,99.90
2019-05-01T00:55:47.319Z,99.90
2019-05-01T00:58:29.312Z,99.90
2019-05-01T01:01:14.844Z,99.90
2019-05-01T01:03:42.170Z,99.90
2019-05-01T01:06:09.872Z,99.90
2019-05-01T01:08:37.082Z,99.90
2019-05-01T01:11:04.336Z,99.90
2019-05-01T01:13:31.630Z,99.90
2019-05-01T01:15:58.858Z,99.90
2019-05-01T01:18:26.117Z,99.90
2019-05-01T01:20:53.494Z,99.90
2019-05-01T01:23:21.386Z,99.90
2019-05-01T01:25:48.607Z,99.90
2019-05-01T01:28:16.479Z,99.90
2019-05-01T01:30:55.632Z,99.90
2019-05-01T01:33:12.824Z,99.90
2019-05-01T01:35:40.055Z,99.90
2019-05-01T01:38:07.297Z,99.90
2019-05-01T01:40:35.242Z,99.90
2019-05-01T01:43:22.082Z,99.90
2019-05-01T01:45:50.801Z,99.90
2019-05-01T01:48:18.550Z,99.90
2019-05-01T01:50:46.407Z,99.90
2019-05-01T01:53:17.523Z,99.90
2019-05-01T01:55:45.555Z,99.90
2019-05-01T01:58:15.649Z,99.90
2019-05-01T02:01:09.201Z,99.90
2019-05-01T02:03:32.973Z,99.90
2019-05-01T02:06:00.287Z,99.90
2019-05-01T02:08:27.574Z,99.90
2019-05-01T02:10:54.782Z,99.90
2019-05-01T02:13:22.456Z,99.90
2019-05-01T02:15:49.703Z,99.90
2019-05-01T02:18:16.923Z,99.90
2019-05-01T02:20:44.153Z,99.90
2019-05-01T02:23:11.383Z,99.90
2019-05-01T02:25:40.591Z,99.90
2019-05-01T02:28:33.950Z,99.90
2019-05-01T02:31:28.193Z,99.90
2019-05-01T02:33:55.033Z,99.90
2019-05-01T02:36:23.902Z,99.90
2019-05-01T02:38:53.693Z,99.90
2019-05-01T02:41:24.317Z,99.90
2019-05-01T02:43:55.184Z,99.90
2019-05-01T02:46:24.752Z,99.90
2019-05-01T02:48:58.859Z,99.90
2019-05-01T02:51:26.394Z,99.90
2019-05-01T02:53:54.501Z,99.90
2019-05-01T02:56:47.644Z,99.90
2019-05-01T02:59:14.999Z,99.90
2019-05-01T03:01:47.640Z,99.90
2019-05-01T03:04:11.580Z,99.90
2019-05-01T03:06:39.917Z,99.90
2019-05-01T03:09:07.892Z,99.90
2019-05-01T03:11:36.983Z,99.90
2019-05-01T03:14:05.429Z,99.90
2019-05-01T03:16:34.143Z,99.90
2019-05-01T03:19:04.840Z,99.90
2019-05-01T03:21:43.595Z,99.90
2019-05-01T03:24:14.370Z,99.90
2019-05-01T03:26:42.001Z,99.90
2019-05-01T03:29:09.323Z,99.90
2019-05-01T03:31:36.557Z,99.90
2019-05-01T03:34:04.204Z,99.90
2019-05-01T03:36:31.808Z,99.90
2019-05-01T03:38:59.429Z,99.90
2019-05-01T03:41:26.781Z,99.90
2019-05-01T03:43:54.329Z,99.90
2019-05-01T03:46:22.021Z,99.90
2019-05-01T03:48:49.463Z,99.90
2019-05-01T03:51:16.776Z,99.90
2019-05-01T03:53:44.203Z,99.90
2019-05-01T03:56:11.528Z,99.90
2019-05-01T03:58:39.016Z,99.90
2019-05-01T04:01:37.867Z,99.90
2019-05-01T04:04:09.548Z,99.90
2019-05-01T04:06:38.428Z,99.90
2019-05-01T04:09:06.995Z,99.90
2019-05-01T04:11:34.939Z,99.90
2019-05-01T04:14:03.053Z,99.90
2019-05-01T04:16:31.126Z,99.90
2019-05-01T04:18:58.818Z,99.90
2019-05-01T04:21:30.481Z,99.90
2019-05-01T04:23:57.837Z,99.90
2019-05-01T04:26:25.278Z,99.90
2019-05-01T04:29:15.341Z,99.90
2019-05-01T04:31:56.239Z,99.90
2019-05-01T04:34:32.630Z,99.90
2019-05-01T04:37:01.598Z,99.90
2019-05-01T04:39:28.841Z,99.90
2019-05-01T04:41:56.260Z,99.90
2019-05-01T04:44:23.564Z,99.90
2019-05-01T04:46:53.557Z,99.90
2019-05-01T04:49:21.284Z,99.90
2019-05-01T04:51:48.632Z,99.90
2019-05-01T04:54:16.177Z,99.90
2019-05-01T04:56:43.823Z,99.90
2019-05-01T04:59:11.191Z,99.90
2019-05-01T05:01:57.526Z,99.90
2019-05-01T05:04:25.659Z,99.90
2019-05-01T05:06:53.358Z,99.90
2019-05-01T05:09:39.331Z,99.90
2019-05-01T05:12:08.701Z,99.90
2019-05-01T05:14:37.860Z,99.90
2019-05-01T05:17:08.196Z,99.90
2019-05-01T05:19:35.531Z,99.90
2019-05-01T05:22:03.015Z,99.90
2019-05-01T05:24:30.907Z,99.90
2019-05-01T05:26:59.144Z,99.90
2019-05-01T05:29:27.429Z,99.90
2019-05-01T05:31:58.760Z,99.90
2019-05-01T05:34:26.494Z,99.90
2019-05-01T05:36:57.676Z,99.90
2019-05-01T05:39:32.095Z,99.90
2019-05-01T05:42:01.028Z,99.90
2019-05-01T05:44:28.587Z,99.90
2019-05-01T05:46:56.098Z,99.90
2019-05-01T05:49:23.684Z,99.90
2019-05-01T05:52:08.554Z,99.90
2019-05-01T05:55:13.780Z,99.90
2019-05-01T05:58:01.459Z,99.90
2019-05-01T06:00:57.278Z,99.90
2019-05-01T06:03:45.727Z,99.90
2019-05-01T06:06:39.483Z,99.90
2019-05-01T06:09:08.911Z,99.90
2019-05-01T06:11:55.888Z,99.90
2019-05-01T06:14:43.302Z,99.90
2019-05-01T06:17:23.748Z,99.90
2019-05-01T06:20:05.603Z,99.90
2019-05-01T06:22:52.664Z,99.90
2019-05-01T06:25:25.602Z,99.90
2019-05-01T06:27:52.925Z,99.90
2019-05-01T06:30:20.135Z,99.90
2019-05-01T06:32:47.392Z,99.90
2019-05-01T06:35:14.752Z,99.90
2019-05-01T06:38:02.656Z,99.90
2019-05-01T06:40:40.250Z,99.90
2019-05-01T06:43:25.396Z,99.90
2019-05-01T06:45:55.486Z,99.90
2019-05-01T06:48:23.646Z,99.90
2019-05-01T06:50:55.052Z,99.90
2019-05-01T06:53:22.399Z,99.90
2019-05-01T06:55:51.511Z,99.90
2019-05-01T06:58:20.563Z,99.90
2019-05-01T07:00:50.011Z,99.90
2019-05-01T07:03:17.480Z,99.90
2019-05-01T07:05:48.917Z,99.90
2019-05-01T07:08:23.957Z,99.90
2019-05-01T07:10:45.778Z,99.90
2019-05-01T07:13:12.795Z,99.90
2019-05-01T07:15:40.062Z,99.90
2019-05-01T07:18:07.332Z,99.90
2019-05-01T07:20:54.360Z,99.90
2019-05-01T07:23:21.899Z,99.90
2019-05-01T07:25:49.455Z,99.90
2019-05-01T07:28:16.901Z,99.90
2019-05-01T07:30:54.841Z,99.90
2019-05-01T07:33:19.415Z,99.90
2019-05-01T07:35:47.506Z,99.90
2019-05-01T07:38:14.731Z,99.90
2019-05-01T07:40:42.263Z,99.90
2019-05-01T07:43:32.029Z,99.90
2019-05-01T07:46:13.797Z,99.90
2019-05-01T07:48:43.345Z,99.90
2019-05-01T07:51:11.352Z,99.90
2019-05-01T07:53:38.998Z,99.90
2019-05-01T07:56:07.721Z,99.90
2019-05-01T07:58:35.001Z,99.90
2019-05-01T08:01:07.651Z,99.90
2019-05-01T08:03:38.151Z,99.90
2019-05-01T08:06:04.163Z,99.90
2019-05-01T08:08:31.385Z,99.90
2019-05-01T08:11:05.333Z,99.90
2019-05-01T08:13:30.631Z,99.90
2019-05-01T08:16:02.059Z,99.90
2019-05-01T08:18:38.004Z,99.90
2019-05-01T08:21:26.017Z,99.90
2019-05-01T08:23:52.727Z,99.90
2019-05-01T08:26:20.047Z,99.90
2019-05-01T08:29:12.623Z,99.90
2019-05-01T08:31:58.754Z,99.90
2019-05-01T08:34:26.590Z,99.90
2019-05-01T08:36:53.975Z,99.90
2019-05-01T08:39:21.197Z,99.90
2019-05-01T08:41:48.441Z,99.90
2019-05-01T08:44:15.819Z,99.90
2019-05-01T08:46:53.137Z,99.90
2019-05-01T08:49:33.412Z,99.90
2019-05-01T08:52:04.847Z,99.90
2019-05-01T08:54:33.526Z,99.90
2019-05-01T08:56:59.965Z,99.90
2019-05-01T08:59:27.387Z,99.90
2019-05-01T09:02:08.444Z,99.90
2019-05-01T09:04:25.209Z,99.90
2019-05-01T09:06:53.229Z,99.90
2019-05-01T09:09:20.479Z,99.90
2019-05-01T09:11:47.792Z,99.90
2019-05-01T09:14:15.015Z,99.90
2019-05-01T09:16:42.237Z,99.90
2019-05-01T09:19:10.772Z,99.90
2019-05-01T09:21:39.474Z,99.90
2019-05-01T09:24:07.039Z,99.90
2019-05-01T09:27:02.889Z,99.90
2019-05-01T09:29:37.171Z,99.90
2019-05-01T09:32:05.029Z,99.90
2019-05-01T09:34:33.694Z,99.90
2019-05-01T09:37:00.955Z,99.90
2019-05-01T09:39:28.842Z,99.90
2019-05-01T09:41:56.086Z,99.90
2019-05-01T09:44:23.371Z,99.90
2019-05-01T09:46:50.611Z,99.90
2019-05-01T09:49:20.000Z,99.90
2019-05-01T09:52:09.558Z,99.90
2019-05-01T09:54:56.325Z,99.90
2019-05-01T09:57:23.570Z,99.90
2019-05-01T09:59:50.831Z,99.90
2019-05-01T10:02:18.075Z,99.90
2019-05-01T10:04:45.335Z,99.90
2019-05-01T10:07:12.702Z,99.90
2019-05-01T10:09:40.158Z,99.90
2019-05-01T10:12:11.466Z,99.90
2019-05-01T10:14:37.506Z,99.90
2019-05-01T10:17:05.416Z,99.90
2019-05-01T10:19:32.807Z,99.90
2019-05-01T10:22:02.404Z,99.90
2019-05-01T10:24:32.249Z,99.90
2019-05-01T10:27:01.607Z,99.90
2019-05-01T10:29:52.501Z,99.90
2019-05-01T10:32:39.184Z,99.90
2019-05-01T10:35:23.612Z,99.90
2019-05-01T10:37:50.863Z,99.90
2019-05-01T10:40:18.091Z,99.90
2019-05-01T10:42:45.368Z,99.90
2019-05-01T10:45:12.603Z,99.90
2019-05-01T10:47:39.892Z,99.90
2019-05-01T10:50:07.137Z,99.90
2019-05-01T10:52:34.400Z,99.90
2019-05-01T10:55:01.629Z,99.60
2019-05-01T10:57:28.883Z,97.50
2019-05-01T10:59:56.113Z,97.50
2019-05-01T11:02:23.427Z,96.30
2019-05-01T11:04:50.643Z,96.10
2019-05-01T11:07:17.893Z,96.20
2019-05-01T11:09:45.363Z,96.40
2019-05-01T11:12:12.671Z,96.40
2019-05-01T11:14:39.979Z,96.30
2019-05-01T11:17:07.217Z,96.10
2019-05-01T11:19:34.583Z,94.10
2019-05-01T11:22:01.891Z,94.30
2019-05-01T11:24:29.177Z,94.60
2019-05-01T11:26:56.444Z,94.90
2019-05-01T11:29:23.679Z,95.20
2019-05-01T11:32:09.417Z,95.20
2019-05-01T11:34:54.648Z,95.10
2019-05-01T11:37:47.652Z,94.40
2019-05-01T11:40:24.036Z,94.30
2019-05-01T11:42:51.450Z,94.00
2019-05-01T11:45:19.301Z,93.40
2019-05-01T11:47:46.690Z,91.90
2019-05-01T11:50:14.109Z,90.50
2019-05-01T11:52:41.487Z,87.10
2019-05-01T11:55:08.986Z,85.30
2019-05-01T11:57:36.283Z,83.10
2019-05-01T12:00:04.761Z,80.80
2019-05-01T12:02:31.974Z,78.70
2019-05-01T12:04:59.235Z,78.40
2019-05-01T12:07:26.459Z,76.60
2019-05-01T12:09:53.706Z,76.40
2019-05-01T12:12:22.794Z,76.40
2019-05-01T12:14:50.026Z,76.40
2019-05-01T12:17:34.971Z,78.50
2019-05-01T12:20:02.215Z,78.80
2019-05-01T12:22:29.456Z,79.50
2019-05-01T12:24:56.670Z,79.70
2019-05-01T12:27:23.911Z,79.90
2019-05-01T12:29:51.126Z,79.70
2019-05-01T12:32:18.350Z,80.20
2019-05-01T12:34:45.580Z,80.10
2019-05-01T12:37:35.572Z,79.80
2019-05-01T12:40:03.598Z,79.90
2019-05-01T12:42:31.483Z,78.90
2019-05-01T12:44:58.792Z,79.00
2019-05-01T12:47:38.480Z,78.30
2019-05-01T12:50:06.257Z,77.90
2019-05-01T12:52:59.060Z,76.50
2019-05-01T12:55:30.677Z,75.60
2019-05-01T12:57:57.931Z,73.80
2019-05-01T13:00:44.971Z,72.60
2019-05-01T13:03:12.247Z,71.30
2019-05-01T13:05:39.463Z,71.20
2019-05-01T13:08:06.727Z,71.10
2019-05-01T13:10:33.955Z,71.00
2019-05-01T13:13:01.196Z,71.10
2019-05-01T13:15:28.471Z,71.80
2019-05-01T13:17:55.795Z,72.30
2019-05-01T13:20:23.041Z,73.10
2019-05-01T13:22:50.259Z,74.10
2019-05-01T13:25:17.478Z,75.10
2019-05-01T13:27:57.155Z,75.50
2019-05-01T13:30:41.699Z,76.10
2019-05-01T13:33:08.931Z,76.50
2019-05-01T13:35:36.261Z,76.60
2019-05-01T13:38:03.520Z,77.00
2019-05-01T13:40:31.358Z,77.10
2019-05-01T13:42:58.639Z,77.20
2019-05-01T13:45:25.864Z,77.00
2019-05-01T13:47:54.624Z,76.60
2019-05-01T13:50:22.667Z,76.30
2019-05-01T13:52:49.916Z,75.70
2019-05-01T13:55:18.189Z,75.60
2019-05-01T13:57:45.423Z,76.20
2019-05-01T14:00:13.371Z,76.50
2019-05-01T14:02:40.611Z,77.00
2019-05-01T14:05:08.243Z,77.80
2019-05-01T14:07:35.475Z,78.10
2019-05-01T14:10:03.963Z,78.30
2019-05-01T14:12:31.178Z,78.30
2019-05-01T14:14:58.435Z,77.90
2019-05-01T14:17:25.741Z,76.40
2019-05-01T14:20:02.590Z,75.10
2019-05-01T14:23:07.558Z,74.80
2019-05-01T14:25:53.113Z,72.80
2019-05-01T14:28:20.492Z,74.80
2019-05-01T14:30:47.791Z,74.80
2019-05-01T14:33:15.023Z,75.20
2019-05-01T14:35:42.255Z,75.60
2019-05-01T14:38:09.505Z,77.10
2019-05-01T14:40:36.752Z,77.60
2019-05-01T14:43:04.135Z,78.60
2019-05-01T14:45:31.363Z,79.40
2019-05-01T14:47:58.613Z,80.30
2019-05-01T14:50:25.983Z,81.10
2019-05-01T14:52:53.207Z,82.60
2019-05-01T14:55:20.459Z,83.00
2019-05-01T14:57:47.729Z,84.70
2019-05-01T15:00:15.864Z,85.10
2019-05-01T15:02:43.107Z,85.30
2019-05-01T15:05:10.355Z,85.30
2019-05-01T15:07:43.755Z,85.80
2019-05-01T15:10:06.920Z,86.80
2019-05-01T15:12:34.307Z,87.00
2019-05-01T15:15:22.895Z,86.50
2019-05-01T15:18:04.647Z,87.10
2019-05-01T15:20:31.877Z,88.20
2019-05-01T15:22:59.224Z,88.40
2019-05-01T15:25:26.484Z,88.00
2019-05-01T15:27:53.727Z,88.20
2019-05-01T15:30:20.984Z,88.20
2019-05-01T15:32:48.221Z,88.40
2019-05-01T15:35:15.429Z,88.80
2019-05-01T15:37:55.757Z,89.00
2019-05-01T15:40:19.363Z,89.40
2019-05-01T15:42:51.657Z,89.90
2019-05-01T15:45:18.935Z,89.10
2019-05-01T15:47:46.174Z,90.30
2019-05-01T15:50:13.491Z,90.50
2019-05-01T15:52:40.699Z,90.50
2019-05-01T15:55:08.276Z,90.60
2019-05-01T15:57:35.611Z,90.10
2019-05-01T16:00:04.408Z,90.20
2019-05-01T16:02:31.631Z,90.30
2019-05-01T16:04:58.919Z,90.40
2019-05-01T16:07:26.162Z,90.40
2019-05-01T16:09:53.403Z,90.70
2019-05-01T16:12:38.219Z,90.60
2019-05-01T16:15:09.810Z,90.40
2019-05-01T16:17:37.040Z,90.90
2019-05-01T16:20:05.051Z,90.80
2019-05-01T16:22:32.279Z,90.80
2019-05-01T16:24:59.551Z,90.80
2019-05-01T16:27:26.875Z,90.80
2019-05-01T16:29:54.118Z,90.90
2019-05-01T16:32:21.399Z,90.80
2019-05-01T16:34:48.645Z,90.80
2019-05-01T16:37:16.047Z,90.80
2019-05-01T16:40:05.400Z,90.90
2019-05-01T16:42:37.667Z,91.00
2019-05-01T16:45:05.583Z,90.90
2019-05-01T16:47:32.837Z,91.00
2019-05-01T16:50:00.053Z,91.00
2019-05-01T16:52:31.267Z,91.00
2019-05-01T16:54:59.739Z,91.00
2019-05-01T16:57:27.075Z,91.00
2019-05-01T16:59:54.431Z,91.00
2019-05-01T17:02:50.327Z,91.30
2019-05-01T17:05:37.195Z,90.80
2019-05-01T17:08:10.828Z,90.90
2019-05-01T17:10:39.643Z,91.00
2019-05-01T17:13:07.396Z,91.10
2019-05-01T17:15:40.273Z,91.20
2019-05-01T17:18:07.695Z,91.00
2019-05-01T17:20:35.047Z,91.50
2019-05-01T17:23:06.307Z,91.40
2019-05-01T17:25:33.610Z,91.40
2019-05-01T17:28:02.974Z,91.40
2019-05-01T17:30:40.764Z,91.40
2019-05-01T17:33:08.011Z,91.60
2019-05-01T17:35:36.853Z,91.50
2019-05-01T17:38:04.499Z,91.60
2019-05-01T17:40:31.819Z,91.80
2019-05-01T17:42:59.064Z,91.90
2019-05-01T17:45:29.954Z,91.90
2019-05-01T17:47:57.814Z,91.90
2019-05-01T17:50:24.711Z,92.40
2019-05-01T17:52:52.031Z,92.20
2019-05-01T17:55:19.243Z,92.30
2019-05-01T17:57:46.524Z,92.60
2019-05-01T18:00:31.681Z,92.50
2019-05-01T18:03:05.786Z,92.60
2019-05-01T18:05:56.187Z,93.00
2019-05-01T18:08:22.500Z,93.00
2019-05-01T18:10:49.772Z,93.60
2019-05-01T18:13:17.032Z,93.80
2019-05-01T18:15:44.959Z,93.80
2019-05-01T18:18:15.164Z,94.00
2019-05-01T18:20:41.320Z,94.00
2019-05-01T18:23:35.628Z,94.10
2019-05-01T18:26:43.573Z,94.20
2019-05-01T18:29:13.686Z,94.30
2019-05-01T18:31:40.939Z,94.80
2019-05-01T18:34:08.170Z,95.10
2019-05-01T18:36:40.019Z,95.00
2019-05-01T18:39:16.884Z,95.20
2019-05-01T18:41:48.303Z,95.40
2019-05-01T18:44:17.583Z,95.10
2019-05-01T18:46:44.812Z,95.50
2019-05-01T18:49:12.155Z,96.20
2019-05-01T18:51:40.657Z,96.60
2019-05-01T18:54:08.172Z,97.00
2019-05-01T18:56:38.269Z,97.10
2019-05-01T18:59:04.543Z,97.20
2019-05-01T19:01:31.899Z,97.60
2019-05-01T19:03:59.153Z,98.00
2019-05-01T19:06:40.102Z,98.10
2019-05-01T19:08:56.779Z,98.20
2019-05-01T19:11:24.159Z,99.60
2019-05-01T19:13:51.510Z,99.90
2019-05-01T19:16:18.883Z,99.90
2019-05-01T19:18:46.327Z,99.90
2019-05-01T19:21:14.524Z,99.90
2019-05-01T19:23:41.847Z,99.90
2019-05-01T19:26:10.036Z,99.90
2019-05-01T19:28:37.472Z,99.90
2019-05-01T19:31:04.689Z,99.90
2019-05-01T19:33:32.006Z,99.90
2019-05-01T19:36:02.733Z,99.90
2019-05-01T19:38:34.906Z,99.90
2019-05-01T19:41:03.652Z,99.90
2019-05-01T19:43:29.895Z,99.90
2019-05-01T19:45:57.508Z,99.90
2019-05-01T19:48:25.019Z,99.90
2019-05-01T19:50:52.393Z,99.90
2019-05-01T19:53:20.395Z,99.90
2019-05-01T19:55:48.723Z,99.90
2019-05-01T19:58:16.011Z,99.90
2019-05-01T20:00:55.236Z,99.90
2019-05-01T20:03:22.553Z,99.90
2019-05-01T20:05:50.138Z,99.90
2019-05-01T20:08:17.799Z,99.90
2019-05-01T20:10:45.037Z,99.90
2019-05-01T20:13:13.316Z,99.90
2019-05-01T20:15:41.130Z,99.90
2019-05-01T20:18:08.353Z,99.90
2019-05-01T20:20:35.651Z,99.90
2019-05-01T20:23:03.047Z,99.90
2019-05-01T20:25:30.523Z,99.90
2019-05-01T20:27:57.769Z,99.90
2019-05-01T20:30:26.412Z,99.90
2019-05-01T20:32:58.086Z,99.90
2019-05-01T20:35:23.821Z,99.90
2019-05-01T20:37:52.111Z,99.90
2019-05-01T20:40:19.920Z,99.90
2019-05-01T20:42:47.380Z,99.90
2019-05-01T20:45:18.203Z,99.90
2019-05-01T20:47:46.438Z,99.90
2019-05-01T20:50:14.047Z,99.90
2019-05-01T20:52:41.567Z,99.90
2019-05-01T20:55:08.847Z,99.90
2019-05-01T20:57:37.862Z,99.90
2019-05-01T21:00:05.226Z,99.90
2019-05-01T21:02:32.483Z,99.90
2019-05-01T21:05:34.330Z,99.90
2019-05-01T21:08:06.391Z,99.90
2019-05-01T21:10:50.655Z,99.90
2019-05-01T21:13:17.892Z,99.90
2019-05-01T21:15:47.060Z,99.90
2019-05-01T21:18:13.962Z,99.90
2019-05-01T21:20:41.207Z,99.90
2019-05-01T21:23:10.873Z,99.90
2019-05-01T21:25:37.597Z,99.90
2019-05-01T21:28:04.860Z,99.90
2019-05-01T21:30:43.988Z,99.90
2019-05-01T21:33:13.881Z,99.90
2019-05-01T21:35:40.883Z,99.90
2019-05-01T21:38:08.251Z,99.90
2019-05-01T21:40:40.621Z,99.90
2019-05-01T21:43:04.839Z,99.90
2019-05-01T21:45:33.047Z,99.90
2019-05-01T21:48:00.522Z,99.90
2019-05-01T21:50:27.759Z,99.90
2019-05-01T21:52:58.068Z,99.90
2019-05-01T21:55:25.810Z,99.90
2019-05-01T21:57:55.027Z,99.90
2019-05-01T22:00:24.873Z,99.90
2019-05-01T22:02:52.038Z,99.90
2019-05-01T22:05:19.362Z,99.90
2019-05-01T22:07:46.596Z,99.90
2019-05-01T22:10:14.402Z,99.90
2019-05-01T22:12:44.029Z,99.90
2019-05-01T22:15:25.611Z,99.90
2019-05-01T22:18:15.430Z,99.90
2019-05-01T22:20:57.516Z,99.90
2019-05-01T22:23:26.847Z,99.90
2019-05-01T22:25:55.587Z,99.90
2019-05-01T22:28:28.931Z,99.90
2019-05-01T22:31:16.808Z,99.90
2019-05-01T22:33:45.368Z,99.90
2019-05-01T22:36:13.084Z,99.90
2019-05-01T22:38:40.326Z,99.90
2019-05-01T22:41:10.124Z,99.90
2019-05-01T22:43:37.363Z,99.90
2019-05-01T22:46:06.755Z,99.90
2019-05-01T22:48:34.003Z,99.90
2019-05-01T22:51:08.225Z,99.90
2019-05-01T22:53:35.439Z,99.90
2019-05-01T22:56:04.046Z,99.90
2019-05-01T22:58:31.499Z,99.90
2019-05-01T23:00:59.918Z,99.90
2019-05-01T23:03:41.329Z,99.90
2019-05-01T23:06:08.079Z,99.90
2019-05-01T23:08:35.308Z,99.90
2019-05-01T23:11:02.631Z,99.90
2019-05-01T23:13:29.863Z,99.90
2019-05-01T23:15:58.074Z,99.90
2019-05-01T23:18:25.575Z,99.90
2019-05-01T23:20:52.793Z,99.90
2019-05-01T23:23:20.011Z,99.90
2019-05-01T23:25:47.342Z,99.90
2019-05-01T23:28:14.557Z,99.90
2019-05-01T23:30:41.810Z,99.90
2019-05-01T23:33:09.064Z,99.90
2019-05-01T23:35:36.308Z,99.90
2019-05-01T23:38:03.538Z,99.90
2019-05-01T23:40:30.855Z,99.90
2019-05-01T23:42:58.111Z,99.90
2019-05-01T23:45:25.320Z,99.90
2019-05-01T23:47:52.567Z,99.90
2019-05-01T23:50:39.551Z,99.90
2019-05-01T23:53:09.009Z,99.90
2019-05-01T23:55:35.916Z,99.90
2019-05-01T23:58:03.296Z,99.90
